createdAt,value
2017-12-28T00:00:36.662Z,5.30
2017-12-28T00:03:02.688Z,5.30
2017-12-28T00:05:28.723Z,5.30
2017-12-28T00:07:55.507Z,5.30
2017-12-28T00:10:21.546Z,5.30
2017-12-28T00:12:47.538Z,5.40
2017-12-28T00:15:13.548Z,5.40
2017-12-28T00:17:40.375Z,5.30
2017-12-28T00:20:06.374Z,5.30
2017-12-28T00:22:32.439Z,5.30
2017-12-28T00:24:58.429Z,5.30
2017-12-28T00:27:25.146Z,5.20
2017-12-28T00:29:51.202Z,5.20
2017-12-28T00:32:17.204Z,5.20
2017-12-28T00:34:43.276Z,5.20
2017-12-28T00:37:09.240Z,5.20
2017-12-28T00:39:35.207Z,5.20
2017-12-28T00:42:01.238Z,5.20
2017-12-28T00:44:27.196Z,5.20
2017-12-28T00:46:53.307Z,5.20
2017-12-28T00:49:19.282Z,5.20
2017-12-28T00:51:45.270Z,5.10
2017-12-28T00:54:11.260Z,5.10
2017-12-28T00:56:37.225Z,5.10
2017-12-28T00:59:03.954Z,5.10
2017-12-28T01:01:29.938Z,5.10
2017-12-28T01:03:55.936Z,5.20
2017-12-28T01:06:22.689Z,5.20
2017-12-28T01:08:49.392Z,5.10
2017-12-28T01:11:15.341Z,5.10
2017-12-28T01:13:41.361Z,5.10
2017-12-28T01:16:07.337Z,5.10
2017-12-28T01:18:33.303Z,5.10
2017-12-28T01:20:59.301Z,5.10
2017-12-28T01:23:25.297Z,5.10
2017-12-28T01:25:51.268Z,5.10
2017-12-28T01:28:17.268Z,5.10
2017-12-28T01:30:43.261Z,5.10
2017-12-28T01:33:09.288Z,5.10
2017-12-28T01:35:35.281Z,5.10
2017-12-28T01:38:01.233Z,5.10
2017-12-28T01:40:27.245Z,5.10
2017-12-28T01:42:53.259Z,5.10
2017-12-28T01:45:20.009Z,5.30
2017-12-28T01:47:59.162Z,5.20
2017-12-28T01:50:25.945Z,5.20
2017-12-28T01:52:51.984Z,5.10
2017-12-28T01:55:17.937Z,5.10
2017-12-28T01:57:43.893Z,5.10
2017-12-28T02:00:09.884Z,5.10
2017-12-28T02:02:35.877Z,5.10
2017-12-28T02:05:01.865Z,5.30
2017-12-28T02:07:27.818Z,5.30
2017-12-28T02:09:53.783Z,5.20
2017-12-28T02:12:19.765Z,5.10
2017-12-28T02:14:45.726Z,5.10
2017-12-28T02:17:11.670Z,5.00
2017-12-28T02:19:37.693Z,5.00
2017-12-28T02:22:03.649Z,5.00
2017-12-28T02:24:29.636Z,5.00
2017-12-28T02:26:55.633Z,5.00
2017-12-28T02:29:22.279Z,5.00
2017-12-28T02:31:48.242Z,5.00
2017-12-28T02:34:14.980Z,5.10
2017-12-28T02:36:40.931Z,5.10
2017-12-28T02:39:07.674Z,5.10
2017-12-28T02:41:34.356Z,5.00
2017-12-28T02:44:00.298Z,5.00
2017-12-28T02:46:26.305Z,5.00
2017-12-28T02:48:53.069Z,5.00
2017-12-28T02:51:19.081Z,5.00
2017-12-28T02:53:45.060Z,5.00
2017-12-28T02:56:11.044Z,5.00
2017-12-28T02:58:36.980Z,5.00
2017-12-28T03:01:02.984Z,5.00
2017-12-28T03:03:28.952Z,5.00
2017-12-28T03:05:54.961Z,5.10
2017-12-28T03:08:20.921Z,5.10
2017-12-28T03:10:46.865Z,5.10
2017-12-28T03:13:12.832Z,5.10
2017-12-28T03:15:38.780Z,5.10
2017-12-28T03:18:04.764Z,5.00
2017-12-28T03:20:30.725Z,5.00
2017-12-28T03:22:57.419Z,5.00
2017-12-28T03:25:23.412Z,5.00
2017-12-28T03:27:50.136Z,5.00
2017-12-28T03:30:16.110Z,5.10
2017-12-28T03:32:42.128Z,5.10
2017-12-28T03:35:08.825Z,5.10
2017-12-28T03:37:34.804Z,5.10
2017-12-28T03:40:00.784Z,5.10
2017-12-28T03:42:26.724Z,5.10
2017-12-28T03:44:52.769Z,5.10
2017-12-28T03:47:19.514Z,5.20
2017-12-28T03:49:45.492Z,5.20
2017-12-28T03:52:11.472Z,5.30
2017-12-28T03:54:37.481Z,5.30
2017-12-28T03:57:03.416Z,5.30
2017-12-28T03:59:29.377Z,5.30
2017-12-28T04:01:55.381Z,5.30
2017-12-28T04:04:21.353Z,5.40
2017-12-28T04:06:47.296Z,5.30
2017-12-28T04:09:13.289Z,5.40
2017-12-28T04:11:39.284Z,5.40
2017-12-28T04:14:05.233Z,5.30
2017-12-28T04:16:31.181Z,5.20
2017-12-28T04:18:57.153Z,5.20
2017-12-28T04:21:23.866Z,5.30
2017-12-28T04:23:49.809Z,5.30
2017-12-28T04:26:15.789Z,5.30
2017-12-28T04:28:41.832Z,5.30
2017-12-28T04:31:07.781Z,5.30
2017-12-28T04:33:33.781Z,5.30
2017-12-28T04:36:00.485Z,5.20
2017-12-28T04:38:26.455Z,5.20
2017-12-28T04:40:52.429Z,5.10
2017-12-28T04:43:18.437Z,5.10
2017-12-28T04:45:44.392Z,5.10
2017-12-28T04:48:11.076Z,5.10
2017-12-28T04:50:37.052Z,5.10
2017-12-28T04:53:02.993Z,5.10
2017-12-28T04:55:28.969Z,5.10
2017-12-28T04:57:54.925Z,5.10
2017-12-28T05:00:20.932Z,5.10
2017-12-28T05:02:46.888Z,5.10
2017-12-28T05:05:12.843Z,5.10
2017-12-28T05:07:38.833Z,5.10
2017-12-28T05:10:04.772Z,5.10
2017-12-28T05:12:30.772Z,5.10
2017-12-28T05:14:56.734Z,5.20
2017-12-28T05:17:23.449Z,5.20
2017-12-28T05:19:49.424Z,5.10
2017-12-28T05:22:15.376Z,5.20
2017-12-28T05:24:41.356Z,5.30
2017-12-28T05:27:07.314Z,5.30
2017-12-28T05:29:34.080Z,5.20
2017-12-28T05:32:00.779Z,5.20
2017-12-28T05:34:26.717Z,5.20
2017-12-28T05:36:52.725Z,5.20
2017-12-28T05:39:18.674Z,5.10
2017-12-28T05:41:44.657Z,5.10
2017-12-28T05:44:10.616Z,5.10
2017-12-28T05:46:37.309Z,5.20
2017-12-28T05:49:03.313Z,5.20
2017-12-28T05:51:29.264Z,5.20
2017-12-28T05:53:55.391Z,5.20
2017-12-28T05:56:21.332Z,5.20
2017-12-28T05:58:47.317Z,5.20
2017-12-28T06:01:13.259Z,5.30
2017-12-28T06:03:39.243Z,5.30
2017-12-28T06:06:05.228Z,5.30
2017-12-28T06:08:31.159Z,5.30
2017-12-28T06:10:57.894Z,5.30
2017-12-28T06:13:23.901Z,5.30
2017-12-28T06:15:49.856Z,5.30
2017-12-28T06:18:15.816Z,5.20
2017-12-28T06:20:41.824Z,5.20
2017-12-28T06:23:07.797Z,5.20
2017-12-28T06:25:33.740Z,5.20
2017-12-28T06:27:59.724Z,5.20
2017-12-28T06:30:25.761Z,5.20
2017-12-28T06:32:51.771Z,5.20
2017-12-28T06:35:17.725Z,5.20
2017-12-28T06:37:43.730Z,5.20
2017-12-28T06:40:10.437Z,5.30
2017-12-28T06:42:36.399Z,5.30
2017-12-28T06:45:02.389Z,5.40
2017-12-28T06:47:28.344Z,5.30
2017-12-28T06:49:54.336Z,5.30
2017-12-28T06:52:21.042Z,5.20
2017-12-28T06:54:47.029Z,5.20
2017-12-28T06:57:12.989Z,5.30
2017-12-28T06:59:38.997Z,5.20
2017-12-28T07:02:05.044Z,5.30
2017-12-28T07:04:30.981Z,5.20
2017-12-28T07:06:56.925Z,5.20
2017-12-28T07:09:22.946Z,5.20
2017-12-28T07:11:48.896Z,5.30
2017-12-28T07:14:15.262Z,5.20
2017-12-28T07:16:41.554Z,5.30
2017-12-28T07:19:08.270Z,5.10
2017-12-28T07:21:34.279Z,5.20
2017-12-28T07:24:00.262Z,5.20
2017-12-28T07:26:26.256Z,5.10
2017-12-28T07:28:52.425Z,5.10
2017-12-28T07:31:18.422Z,5.10
2017-12-28T07:33:44.364Z,5.10
2017-12-28T07:36:10.412Z,5.00
2017-12-28T07:38:36.365Z,5.00
2017-12-28T07:41:02.375Z,5.10
2017-12-28T07:43:28.316Z,5.10
2017-12-28T07:45:54.325Z,5.10
2017-12-28T07:48:20.398Z,5.20
2017-12-28T07:50:46.356Z,5.20
2017-12-28T07:53:12.355Z,5.10
2017-12-28T07:55:38.344Z,5.10
2017-12-28T07:58:04.301Z,5.10
2017-12-28T08:00:30.984Z,5.10
2017-12-28T08:02:56.983Z,5.10
2017-12-28T08:05:22.993Z,5.00
2017-12-28T08:07:48.957Z,5.10
2017-12-28T08:10:15.688Z,5.00
2017-12-28T08:12:41.633Z,5.00
2017-12-28T08:15:07.627Z,5.10
2017-12-28T08:17:33.626Z,5.10
2017-12-28T08:20:00.345Z,5.10
2017-12-28T08:22:26.309Z,5.10
2017-12-28T08:24:53.158Z,5.10
2017-12-28T08:27:19.105Z,5.10
2017-12-28T08:29:45.796Z,5.00
2017-12-28T08:32:11.796Z,5.00
2017-12-28T08:34:38.497Z,5.00
2017-12-28T08:37:04.493Z,5.00
2017-12-28T08:39:31.176Z,5.00
2017-12-28T08:41:57.181Z,5.00
2017-12-28T08:44:23.984Z,5.00
2017-12-28T08:46:49.932Z,5.00
2017-12-28T08:49:15.893Z,4.90
2017-12-28T08:51:41.913Z,5.00
2017-12-28T08:54:07.881Z,4.80
2017-12-28T08:56:34.560Z,4.80
2017-12-28T08:59:00.562Z,4.70
2017-12-28T09:01:27.293Z,4.80
2017-12-28T09:03:53.280Z,4.80
2017-12-28T09:06:19.253Z,4.80
2017-12-28T09:08:45.968Z,4.80
2017-12-28T09:11:11.958Z,4.80
2017-12-28T09:13:37.934Z,4.80
2017-12-28T09:16:03.912Z,4.80
2017-12-28T09:18:29.856Z,4.80
2017-12-28T09:20:55.938Z,4.80
2017-12-28T09:23:21.903Z,4.70
2017-12-28T09:25:47.860Z,4.70
2017-12-28T09:28:13.830Z,4.70
2017-12-28T09:30:40.576Z,4.60
2017-12-28T09:33:07.321Z,4.60
2017-12-28T09:35:33.333Z,4.60
2017-12-28T09:37:59.317Z,4.60
2017-12-28T09:40:26.050Z,4.40
2017-12-28T09:42:52.066Z,4.40
2017-12-28T09:45:18.012Z,4.40
2017-12-28T09:47:43.992Z,4.30
2017-12-28T09:50:09.976Z,4.10
2017-12-28T09:52:35.911Z,4.00
2017-12-28T09:55:01.862Z,3.80
2017-12-28T09:57:27.837Z,3.70
2017-12-28T09:59:53.788Z,3.60
2017-12-28T10:02:19.751Z,3.40
2017-12-28T10:04:45.736Z,3.30
2017-12-28T10:07:12.431Z,3.30
2017-12-28T10:09:38.465Z,3.20
2017-12-28T10:12:04.411Z,3.20
2017-12-28T10:14:30.368Z,3.20
2017-12-28T10:16:56.397Z,3.20
2017-12-28T10:19:22.370Z,3.10
2017-12-28T10:21:48.455Z,3.10
2017-12-28T10:24:14.397Z,3.10
2017-12-28T10:26:40.340Z,3.10
2017-12-28T10:29:06.320Z,3.10
2017-12-28T10:31:32.292Z,3.00
2017-12-28T10:33:58.306Z,3.10
2017-12-28T10:36:24.326Z,3.00
2017-12-28T10:38:50.313Z,3.00
2017-12-28T10:41:16.327Z,3.10
2017-12-28T10:43:42.272Z,3.10
2017-12-28T10:46:08.225Z,3.00
2017-12-28T10:48:34.196Z,3.00
2017-12-28T10:51:00.154Z,3.00
2017-12-28T10:53:26.161Z,3.10
2017-12-28T10:55:52.119Z,3.10
2017-12-28T10:58:18.111Z,3.30
2017-12-28T11:00:44.800Z,3.30
2017-12-28T11:03:10.786Z,3.40
2017-12-28T11:05:36.740Z,3.30
2017-12-28T11:08:03.456Z,3.30
2017-12-28T11:10:29.401Z,3.30
2017-12-28T11:12:55.429Z,3.30
2017-12-28T11:15:21.389Z,3.30
2017-12-28T11:17:48.078Z,3.40
2017-12-28T11:20:14.064Z,3.40
2017-12-28T11:22:40.013Z,3.40
2017-12-28T11:25:06.723Z,3.40
2017-12-28T11:27:32.701Z,3.40
2017-12-28T11:29:58.681Z,3.50
2017-12-28T11:32:24.689Z,3.50
2017-12-28T11:34:51.410Z,3.70
2017-12-28T11:37:17.382Z,3.60
2017-12-28T11:39:44.071Z,3.60
2017-12-28T11:42:10.058Z,3.60
2017-12-28T11:44:36.792Z,3.70
2017-12-28T11:47:03.505Z,3.70
2017-12-28T11:49:29.488Z,3.70
2017-12-28T11:52:01.751Z,3.70
2017-12-28T11:54:31.612Z,3.70
2017-12-28T11:57:01.292Z,3.70
2017-12-28T11:59:27.272Z,3.70
2017-12-28T12:02:00.328Z,3.80
2017-12-28T12:04:26.334Z,3.80
2017-12-28T12:06:52.300Z,3.80
2017-12-28T12:09:18.284Z,3.80
2017-12-28T12:11:45.010Z,3.80
2017-12-28T12:14:10.997Z,3.80
2017-12-28T12:16:36.981Z,3.80
2017-12-28T12:19:02.929Z,3.90
2017-12-28T12:21:28.896Z,3.90
2017-12-28T12:23:54.947Z,3.90
2017-12-28T12:26:20.970Z,4.00
2017-12-28T12:28:46.913Z,3.90
2017-12-28T12:31:12.893Z,4.00
2017-12-28T12:33:45.989Z,4.00
2017-12-28T12:36:11.937Z,4.00
2017-12-28T12:38:37.919Z,4.00
2017-12-28T12:41:03.962Z,4.00
2017-12-28T12:43:29.921Z,4.20
2017-12-28T12:45:55.913Z,4.20
2017-12-28T12:48:22.638Z,4.10
2017-12-28T12:50:48.608Z,4.10
2017-12-28T12:53:14.598Z,4.00
2017-12-28T12:55:40.552Z,4.10
2017-12-28T12:58:06.643Z,4.10
2017-12-28T13:00:32.641Z,4.10
2017-12-28T13:02:59.338Z,4.10
2017-12-28T13:05:25.353Z,4.10
2017-12-28T13:07:51.316Z,4.10
2017-12-28T13:10:17.304Z,4.10
2017-12-28T13:12:44.020Z,4.20
2017-12-28T13:15:09.984Z,4.20
2017-12-28T13:17:36.672Z,4.10
2017-12-28T13:20:02.656Z,4.10
2017-12-28T13:22:28.636Z,4.10
2017-12-28T13:24:54.693Z,4.10
2017-12-28T13:27:20.680Z,4.20
2017-12-28T13:29:46.639Z,4.20
2017-12-28T13:32:12.612Z,4.20
2017-12-28T13:34:38.588Z,4.20
2017-12-28T13:37:04.538Z,4.20
2017-12-28T13:39:31.289Z,4.20
2017-12-28T13:41:57.989Z,4.20
2017-12-28T13:44:23.993Z,4.20
2017-12-28T13:46:49.992Z,4.20
2017-12-28T13:49:15.960Z,4.20
2017-12-28T13:51:41.948Z,4.20
2017-12-28T13:54:07.912Z,4.20
2017-12-28T13:56:33.889Z,4.20
2017-12-28T13:58:59.845Z,4.20
2017-12-28T14:01:25.834Z,4.20
2017-12-28T14:03:51.833Z,4.20
2017-12-28T14:06:17.772Z,4.20
2017-12-28T14:08:43.742Z,4.20
2017-12-28T14:11:10.438Z,4.20
2017-12-28T14:13:36.424Z,4.20
2017-12-28T14:16:03.152Z,4.20
2017-12-28T14:18:29.109Z,4.20
2017-12-28T14:20:55.080Z,4.10
2017-12-28T14:23:21.051Z,4.10
2017-12-28T14:25:47.034Z,4.10
2017-12-28T14:28:13.760Z,4.10
2017-12-28T14:30:39.736Z,4.10
2017-12-28T14:33:05.713Z,4.10
2017-12-28T14:35:31.681Z,4.10
2017-12-28T14:37:58.441Z,4.20
2017-12-28T14:40:25.197Z,4.20
2017-12-28T14:42:52.040Z,4.20
2017-12-28T14:45:17.985Z,4.10
2017-12-28T14:47:44.756Z,4.10
2017-12-28T14:50:11.285Z,4.10
2017-12-28T14:52:37.976Z,4.10
2017-12-28T14:55:03.964Z,4.10
2017-12-28T14:57:29.949Z,4.10
2017-12-28T14:59:55.942Z,4.10
2017-12-28T15:02:21.924Z,4.00
2017-12-28T15:04:47.945Z,4.00
2017-12-28T15:07:13.891Z,4.00
2017-12-28T15:09:39.880Z,4.00
2017-12-28T15:12:05.930Z,4.00
2017-12-28T15:14:32.698Z,4.00
2017-12-28T15:16:59.436Z,4.00
2017-12-28T15:19:25.415Z,4.00
2017-12-28T15:21:51.446Z,4.00
2017-12-28T15:24:17.444Z,4.00
2017-12-28T15:26:43.408Z,4.00
2017-12-28T15:32:00.201Z,4.00
2017-12-28T15:34:26.238Z,4.00
2017-12-28T15:36:52.227Z,4.00
2017-12-28T15:39:18.999Z,3.90
2017-12-28T15:41:45.001Z,4.00
2017-12-28T15:44:10.977Z,3.90
2017-12-28T15:46:36.945Z,3.90
2017-12-28T15:49:02.998Z,3.90
2017-12-28T15:51:28.960Z,3.80
2017-12-28T15:53:56.153Z,3.80
2017-12-28T15:56:22.257Z,3.80
2017-12-28T15:58:48.415Z,3.80
2017-12-28T16:01:14.472Z,3.80
2017-12-28T16:03:40.507Z,3.80
2017-12-28T16:06:06.513Z,3.80
2017-12-28T16:08:33.236Z,3.80
2017-12-28T16:10:59.256Z,3.80
2017-12-28T16:13:25.288Z,3.80
2017-12-28T16:15:51.314Z,3.70
2017-12-28T16:18:17.336Z,3.70
2017-12-28T16:20:43.423Z,3.70
2017-12-28T16:23:09.442Z,3.70
2017-12-28T16:25:35.401Z,3.70
2017-12-28T16:28:01.384Z,3.60
2017-12-28T16:30:27.460Z,3.50
2017-12-28T16:32:53.476Z,3.50
2017-12-28T16:35:19.481Z,3.50
2017-12-28T16:37:46.218Z,3.50
2017-12-28T16:40:13.057Z,3.40
2017-12-28T16:42:39.061Z,3.40
2017-12-28T16:45:05.001Z,3.40
2017-12-28T16:47:31.003Z,3.30
2017-12-28T16:49:57.803Z,3.30
2017-12-28T16:52:23.954Z,3.30
2017-12-28T16:54:49.959Z,3.30
2017-12-28T16:57:15.940Z,3.30
2017-12-28T16:59:42.021Z,3.30
2017-12-28T17:02:07.972Z,3.20
2017-12-28T17:04:34.007Z,3.20
2017-12-28T17:06:59.992Z,3.20
2017-12-28T17:09:26.057Z,3.20
2017-12-28T17:11:52.860Z,3.10
2017-12-28T17:14:18.867Z,3.10
2017-12-28T17:16:44.856Z,3.10
2017-12-28T17:19:10.853Z,3.10
2017-12-28T17:21:36.868Z,3.10
2017-12-28T17:24:02.875Z,3.10
2017-12-28T17:26:28.844Z,3.10
2017-12-28T17:28:54.878Z,3.10
2017-12-28T17:31:20.914Z,3.00
2017-12-28T17:33:46.968Z,3.00
2017-12-28T17:36:12.979Z,3.00
2017-12-28T17:38:39.718Z,3.00
2017-12-28T17:41:06.503Z,3.00
2017-12-28T17:43:32.464Z,3.00
2017-12-28T17:45:58.571Z,2.90
2017-12-28T17:48:24.605Z,2.90
2017-12-28T17:50:50.625Z,2.90
2017-12-28T17:53:16.667Z,2.80
2017-12-28T17:55:43.427Z,2.90
2017-12-28T17:58:10.176Z,2.90
2017-12-28T18:00:36.952Z,2.80
2017-12-28T18:03:02.939Z,2.80
2017-12-28T18:05:28.977Z,2.80
2017-12-28T18:07:55.009Z,2.70
2017-12-28T18:10:21.025Z,2.70
2017-12-28T18:12:47.079Z,2.70
2017-12-28T18:15:13.089Z,2.70
2017-12-28T18:17:39.120Z,2.70
2017-12-28T18:20:05.110Z,2.80
2017-12-28T18:22:31.106Z,2.80
2017-12-28T18:24:57.072Z,2.80
2017-12-28T18:27:23.278Z,2.70
2017-12-28T18:29:49.247Z,2.80
2017-12-28T18:32:15.292Z,2.70
2017-12-28T18:34:41.268Z,2.80
2017-12-28T18:37:07.200Z,2.80
2017-12-28T18:39:33.172Z,2.70
2017-12-28T18:41:59.186Z,2.70
2017-12-28T18:44:25.219Z,2.70
2017-12-28T18:46:51.247Z,2.70
2017-12-28T18:49:17.199Z,2.70
2017-12-28T18:51:43.232Z,2.70
2017-12-28T18:54:09.231Z,2.60
2017-12-28T18:56:35.305Z,2.60
2017-12-28T18:59:01.299Z,2.60
2017-12-28T19:01:27.299Z,2.60
2017-12-28T19:03:53.386Z,2.60
2017-12-28T19:06:19.436Z,2.60
2017-12-28T19:08:46.162Z,2.60
2017-12-28T19:11:12.196Z,2.60
2017-12-28T19:13:38.205Z,2.60
2017-12-28T19:16:04.265Z,2.60
2017-12-28T19:18:30.208Z,2.50
2017-12-28T19:20:56.244Z,2.50
2017-12-28T19:23:22.384Z,2.50
2017-12-28T19:25:48.429Z,2.50
2017-12-28T19:28:14.457Z,2.50
2017-12-28T19:30:40.497Z,2.40
2017-12-28T19:33:13.439Z,2.40
2017-12-28T19:35:39.461Z,2.40
2017-12-28T19:38:06.235Z,2.30
2017-12-28T19:40:32.230Z,2.30
2017-12-28T19:42:58.231Z,2.30
2017-12-28T19:45:24.322Z,2.30
2017-12-28T19:47:51.083Z,2.20
2017-12-28T19:50:17.843Z,2.10
2017-12-28T19:52:43.844Z,2.10
2017-12-28T19:55:09.862Z,2.10
2017-12-28T19:57:35.921Z,2.10
2017-12-28T20:00:01.963Z,2.10
2017-12-28T20:02:27.976Z,2.00
2017-12-28T20:04:54.014Z,2.00
2017-12-28T20:07:20.043Z,1.90
2017-12-28T20:12:05.917Z,1.90
2017-12-28T20:14:32.660Z,1.80
2017-12-28T20:16:58.694Z,1.90
2017-12-28T20:19:24.769Z,1.90
2017-12-28T20:21:50.726Z,1.90
2017-12-28T20:24:16.726Z,1.90
2017-12-28T20:26:42.755Z,1.80
2017-12-28T20:29:09.532Z,1.80
2017-12-28T20:31:35.574Z,1.80
2017-12-28T20:34:01.600Z,1.80
2017-12-28T20:36:27.601Z,1.80
2017-12-28T20:38:53.677Z,1.70
2017-12-28T20:41:19.693Z,1.70
2017-12-28T20:43:46.491Z,1.70
2017-12-28T20:46:12.493Z,1.70
2017-12-28T20:48:39.252Z,1.70
2017-12-28T20:51:05.283Z,1.70
2017-12-28T20:53:32.065Z,1.80
2017-12-28T20:55:58.117Z,1.80
2017-12-28T20:58:24.261Z,1.80
2017-12-28T21:00:50.331Z,1.80
2017-12-28T21:03:16.365Z,1.80
2017-12-28T21:05:42.399Z,1.80
2017-12-28T21:08:08.404Z,2.00
2017-12-28T21:10:34.436Z,1.90
2017-12-28T21:13:00.445Z,1.90
2017-12-28T21:15:26.468Z,2.00
2017-12-28T21:17:53.316Z,2.00
2017-12-28T21:20:19.349Z,2.00
2017-12-28T21:22:46.125Z,2.10
2017-12-28T21:25:12.245Z,2.00
2017-12-28T21:27:39.020Z,2.10
2017-12-28T21:30:05.076Z,2.10
2017-12-28T21:32:31.089Z,2.20
2017-12-28T21:34:57.874Z,2.20
2017-12-28T21:37:23.949Z,2.10
2017-12-28T21:39:49.970Z,2.20
2017-12-28T21:42:15.965Z,2.20
2017-12-28T21:44:42.000Z,2.20
2017-12-28T21:47:08.005Z,2.20
2017-12-28T21:49:34.004Z,2.20
2017-12-28T21:52:00.040Z,2.20
2017-12-28T21:54:26.053Z,2.20
2017-12-28T21:56:52.133Z,2.20
2017-12-28T21:59:18.166Z,2.20
2017-12-28T22:01:44.200Z,2.20
2017-12-28T22:04:10.209Z,2.30
2017-12-28T22:06:36.236Z,2.30
2017-12-28T22:09:02.232Z,2.20
2017-12-28T22:11:28.387Z,2.20
2017-12-28T22:13:55.154Z,2.20
2017-12-28T22:16:21.904Z,2.20
2017-12-28T22:18:48.706Z,2.20
2017-12-28T22:21:14.692Z,2.20
2017-12-28T22:23:41.477Z,2.20
2017-12-28T22:26:07.486Z,2.10
2017-12-28T22:28:34.259Z,2.20
2017-12-28T22:31:00.288Z,2.10
2017-12-28T22:33:27.093Z,2.10
2017-12-28T22:35:54.253Z,2.10
2017-12-28T22:38:20.276Z,2.10
2017-12-28T22:40:46.309Z,2.00
2017-12-28T22:43:12.308Z,1.90
2017-12-28T22:45:39.062Z,1.80
2017-12-28T22:48:05.817Z,1.80
2017-12-28T22:50:32.587Z,1.70
2017-12-28T22:52:58.594Z,1.80
2017-12-28T22:55:24.717Z,1.70
2017-12-28T22:57:50.711Z,1.70
2017-12-28T23:00:16.735Z,1.70
2017-12-28T23:02:42.825Z,1.60
2017-12-28T23:05:08.913Z,1.60
2017-12-28T23:07:34.936Z,1.70
2017-12-28T23:10:01.727Z,1.70
2017-12-28T23:12:27.768Z,1.70
2017-12-28T23:14:53.865Z,1.60
2017-12-28T23:17:21.297Z,1.60
2017-12-28T23:19:48.073Z,1.50
2017-12-28T23:22:14.127Z,1.60
2017-12-28T23:24:40.883Z,1.60
2017-12-28T23:27:07.651Z,1.60
2017-12-28T23:29:33.644Z,1.60
2017-12-28T23:31:59.673Z,1.60
2017-12-28T23:34:25.735Z,1.70
2017-12-28T23:36:51.755Z,1.70
2017-12-28T23:39:17.751Z,1.70
2017-12-28T23:41:43.826Z,1.70
2017-12-28T23:44:09.818Z,1.70
2017-12-28T23:46:35.849Z,1.70
2017-12-28T23:49:01.880Z,1.80
2017-12-28T23:51:28.657Z,1.70
2017-12-28T23:53:54.739Z,1.70
2017-12-28T23:56:20.769Z,1.70
2017-12-28T23:58:46.772Z,1.80
